Ganado, Texas
Current Conditions -  °F | °C
As of 1:15 PM on Friday 24 Oct 2014 (Local Time) from KARM Reporting Station
Clear Clear  
Wind Chill: 80°   Ceiling: Unl
Heat Index: 80°   Visibility: 10mi
Dew Point: 49°   Wind: 8mph
Humidity: 35%   Direction: 360°N
Pressure: 30.14"   Gusts: NA
Location:  29.04°N, 96.51°W
Report Text: KARM 241815Z AUTO 36007KT 10SM CLR 26/10 A3014 RMK AO2 T02640097
Loading
Personal Weather Stations






























Interactive Weather Map
Tropical Storm Tracking
New forecast layout! Learn more

10-Day Weather Forecast

Advertisements
Track Severe Weather on mobile